| time (UTC) | temp F | wind direction | speed knots | gust knots | rain 1hr in | rain 24hr in | rain mn in | humidity % | barometer mb |
| 20260506184525 | 60 | 236 | 3.5 | 9.6 | 0.00 | 0.00 | 0.00 | 23 | 1022.6 |
| 20260506183026 | 61 | 296 | 1.7 | 7.0 | 0.00 | 0.00 | 0.00 | 25 | 1022.7 |
| 20260506181528 | 60 | 346 | 1.7 | 7.0 | 0.00 | 0.00 | 0.00 | 25 | 1022.8 |
| 20260506180018 | 60 | 350 | 0.9 | 7.8 | 0.00 | 0.00 | 0.00 | 26 | 1022.7 |
| 20260506174524 | 59 | 49 | 3.5 | 8.7 | 0.00 | 0.00 | 0.00 | 28 | 1022.6 |
| 20260506173026 | 59 | 340 | 2.6 | 6.1 | 0.00 | 0.00 | 0.00 | 26 | 1022.5 |
| 20260506171529 | 58 | 360 | 1.7 | 4.3 | 0.00 | 0.00 | 0.00 | 28 | 1022.3 |
| 20260506170019 | 57 | 251 | 1.7 | 8.7 | 0.00 | 0.00 | 0.00 | 29 | 1022.4 |
| 20260506164525 | 57 | 20 | 3.5 | 6.1 | 0.00 | 0.00 | 0.00 | 40 | 1022.3 |
| 20260506163028 | 55 | 5 | 0.0 | 4.3 | 0.00 | 0.00 | 0.00 | 44 | 1022.2 |
| 20260506161514 | 53 | 5 | 1.7 | 2.6 | 0.00 | 0.00 | 0.00 | 51 | 1022.1 |
| 20260506160013 | 50 | 5 | 2.6 | 4.3 | 0.00 | 0.01 | 0.00 | 55 | 1022.1 |
| 20260506154507 | 50 | 9 | 1.7 | 4.3 | 0.00 | 0.01 | 0.00 | 55 | 1022.0 |
| 20260506153012 | 49 | 352 | 0.0 | 0.0 | 0.00 | 0.01 | 0.00 | 59 | 1021.9 |
| 20260506151517 | 47 | 352 | 0.0 | 0.0 | 0.00 | 0.02 | 0.00 | 63 | 1022.0 |
| 20260506150018 | 44 | 352 | 0.0 | 0.0 | 0.00 | 0.04 | 0.00 | 68 | 1022.0 |
| 20260506144523 | 43 | 348 | 0.0 | 0.0 | 0.00 | 0.05 | 0.00 | 70 | 1021.9 |
| 20260506143016 | 42 | 291 | 0.0 | 0.0 | 0.00 | 0.07 | 0.00 | 72 | 1021.7 |
| 20260506141518 | 41 | 289 | 0.0 | 0.0 | 0.00 | 0.08 | 0.00 | 78 | 1021.5 |
| 20260506140024 | 38 | 286 | 0.0 | 0.0 | 0.00 | 0.09 | 0.00 | 83 | 1021.4 |
| 20260506134510 | 36 | 287 | 0.0 | 0.9 | 0.00 | 0.10 | 0.00 | 83 | 1021.2 |
| 20260506133016 | 34 | 287 | 0.0 | 2.6 | 0.00 | 0.10 | 0.00 | 83 | 1020.9 |
| 20260506131527 | 34 | 287 | 0.9 | 2.6 | 0.00 | 0.10 | 0.00 | 83 | 1020.7 |
| 20260506130022 | 34 | 287 | 0.9 | 3.5 | 0.00 | 0.10 | 0.00 | 83 | 1020.5 |
| 20260506124511 | 34 | 289 | 0.9 | 2.6 | 0.00 | 0.10 | 0.00 | 83 | 1020.2 |
| 20260506123024 | 34 | 289 | 0.9 | 2.6 | 0.00 | 0.10 | 0.00 | 82 | 1020.1 |
| 20260506121522 | 34 | 289 | 0.9 | 2.6 | 0.00 | 0.10 | 0.00 | 81 | 1020.0 |
| 20260506120029 | 35 | 290 | 0.9 | 2.6 | 0.00 | 0.10 | 0.00 | 81 | 1019.7 |
| 20260506114518 | 35 | 288 | 0.0 | 1.7 | 0.00 | 0.10 | 0.00 | 80 | 1019.8 |
| 20260506113018 | 35 | 288 | 0.9 | 2.6 | 0.00 | 0.10 | 0.00 | 79 | 1019.5 |
| 20260506111523 | 36 | 304 | 0.9 | 2.6 | 0.00 | 0.10 | 0.00 | 79 | 1019.4 |
| 20260506110037 | 36 | 304 | 0.0 | 2.6 | 0.00 | 0.10 | 0.00 | 78 | 1019.5 |
| 20260506104522 | 37 | 304 | 1.7 | 2.6 | 0.00 | 0.10 | 0.00 | 78 | 1019.4 |
| 20260506103022 | 37 | 304 | 1.7 | 3.5 | 0.00 | 0.10 | 0.00 | 76 | 1019.3 |
| 20260506101529 | 37 | 219 | 0.0 | 0.0 | 0.00 | 0.10 | 0.00 | 75 | 1019.2 |
| 20260506100025 | 38 | 219 | 0.0 | 0.0 | 0.00 | 0.10 | 0.00 | 73 | 1019.1 |
| 20260506094518 | 39 | 219 | 0.0 | 0.0 | 0.00 | 0.10 | 0.00 | 71 | 1018.9 |
| 20260506093031 | 40 | 219 | 0.0 | 0.0 | 0.00 | 0.11 | 0.00 | 69 | 1018.9 |
| 20260506091524 | 40 | 219 | 0.0 | 0.0 | 0.00 | 0.11 | 0.00 | 67 | 1018.8 |
| 20260506090033 | 41 | 219 | 0.0 | 3.5 | 0.00 | 0.11 | 0.00 | 64 | 1018.7 |
| 20260506084518 | 40 | 217 | 0.9 | 3.5 | 0.00 | 0.11 | 0.00 | 70 | 1018.8 |
| 20260506083031 | 40 | 213 | 0.0 | 0.0 | 0.00 | 0.11 | 0.00 | 70 | 1018.8 |
| 20260506081527 | 41 | 213 | 0.0 | 0.0 | 0.00 | 0.11 | 0.00 | 70 | 1018.6 |
| 20260506073026 | 41 | 229 | 0.9 | 2.6 | 0.00 | 0.11 | 0.00 | 68 | 1018.3 |
| 20260506071510 | 42 | 229 | 0.9 | 1.7 | 0.00 | 0.11 | 0.00 | 65 | 1018.5 |
| 20260506061510 | 44 | 208 | 2.6 | 6.1 | 0.00 | 0.11 | 0.11 | 48 | 1018.0 |
| 20260506044533 | 44 | 232 | 1.7 | 7.0 | 0.00 | 0.11 | 0.11 | 54 | 1017.2 |
| 20260506043008 | 46 | 250 | 1.7 | 5.2 | 0.00 | 0.11 | 0.11 | 51 | 1017.0 |
| 20260506041511 | 46 | 218 | 1.7 | 6.1 | 0.00 | 0.11 | 0.11 | 52 | 1016.7 |
| 20260506040022 | 45 | 225 | 1.7 | 4.3 | 0.00 | 0.11 | 0.11 | 52 | 1016.5 |
| 20260506034525 | 45 | 250 | 1.7 | 4.3 | 0.00 | 0.11 | 0.11 | 53 | 1016.4 |
| 20260506033013 | 45 | 227 | 1.7 | 5.2 | 0.00 | 0.11 | 0.11 | 52 | 1016.1 |
| 20260506031529 | 45 | 237 | 1.7 | 4.3 | 0.00 | 0.11 | 0.11 | 52 | 1015.8 |
| 20260506030021 | 46 | 252 | 1.7 | 3.5 | 0.00 | 0.11 | 0.11 | 51 | 1015.6 |
| 20260506024532 | 47 | 244 | 0.9 | 3.5 | 0.00 | 0.11 | 0.11 | 49 | 1015.4 |
| 20260506023014 | 48 | 246 | 0.9 | 2.6 | 0.00 | 0.11 | 0.11 | 47 | 1015.3 |
| 20260506021521 | 49 | 246 | 0.9 | 3.5 | 0.00 | 0.11 | 0.11 | 45 | 1014.9 |
| 20260506020025 | 50 | 244 | 0.9 | 3.5 | 0.00 | 0.12 | 0.11 | 45 | 1014.6 |
| 20260506014527 | 51 | 275 | 1.7 | 7.0 | 0.00 | 0.12 | 0.11 | 43 | 1014.5 |
| 20260506013013 | 51 | 299 | 0.9 | 2.6 | 0.00 | 0.15 | 0.11 | 41 | 1014.4 |
| 20260506011520 | 52 | 350 | 0.9 | 3.5 | 0.00 | 0.15 | 0.11 | 36 | 1014.2 |
| 20260506010047 | 53 | 290 | 0.9 | 5.2 | 0.00 | 0.15 | 0.11 | 34 | 1014.1 |
| 20260506004528 | 52 | 325 | 1.7 | 8.7 | 0.00 | 0.15 | 0.11 | 38 | 1014.0 |
| 20260506003014 | 52 | 323 | 1.7 | 7.0 | 0.00 | 0.15 | 0.11 | 38 | 1013.9 |
| 20260506001522 | 50 | 290 | 2.6 | 7.8 | 0.00 | 0.15 | 0.11 | 44 | 1013.9 |
| 20260506000026 | 50 | 313 | 3.5 | 8.7 | 0.00 | 0.15 | 0.11 | 45 | 1013.8 |
| 20260505234530 | 50 | 334 | 3.5 | 10.4 | 0.00 | 0.15 | 0.11 | 45 | 1013.8 |
| 20260505233019 | 51 | 324 | 2.6 | 10.4 | 0.00 | 0.15 | 0.11 | 48 | 1013.7 |
| 20260505231525 | 50 | 338 | 4.3 | 12.2 | 0.00 | 0.15 | 0.11 | 48 | 1013.8 |
| 20260505230037 | 50 | 348 | 3.5 | 8.7 | 0.00 | 0.15 | 0.11 | 46 | 1013.7 |
| 20260505224533 | 52 | 13 | 3.5 | 10.4 | 0.00 | 0.15 | 0.11 | 36 | 1013.5 |
| 20260505223021 | 54 | 15 | 3.5 | 7.0 | 0.00 | 0.15 | 0.11 | 33 | 1013.5 |
| 20260505221508 | 52 | 15 | 3.5 | 10.4 | 0.00 | 0.15 | 0.11 | 35 | 1013.5 |
| 20260505220007 | 52 | 321 | 3.5 | 7.8 | 0.00 | 0.15 | 0.11 | 35 | 1013.5 |
| 20260505214516 | 52 | 256 | 0.9 | 3.5 | 0.00 | 0.15 | 0.11 | 41 | 1013.6 |
| 20260505213026 | 51 | 344 | 0.9 | 3.5 | 0.00 | 0.15 | 0.11 | 47 | 1013.6 |
| 20260505211506 | 51 | 5 | 2.6 | 6.1 | 0.00 | 0.15 | 0.11 | 41 | 1013.6 |
| 20260505210012 | 50 | 232 | 1.7 | 4.3 | 0.00 | 0.15 | 0.11 | 48 | 1013.5 |
| 20260505204520 | 49 | 266 | 1.7 | 3.5 | 0.00 | 0.15 | 0.11 | 53 | 1013.7 |
| 20260505203003 | 48 | 166 | 0.9 | 7.0 | 0.00 | 0.15 | 0.11 | 53 | 1013.7 |
| 20260505201510 | 46 | 89 | 1.7 | 3.5 | 0.00 | 0.15 | 0.11 | 53 | 1013.7 |
| 20260505200014 | 47 | 5 | 1.7 | 6.1 | 0.00 | 0.15 | 0.11 | 53 | 1013.9 |
| 20260505194519 | 45 | 62 | 0.0 | 7.0 | 0.00 | 0.15 | 0.11 | 55 | 1014.2 |
| 20260505193004 | 45 | 28 | 2.6 | 7.0 | 0.00 | 0.15 | 0.11 | 57 | 1014.1 |
| 20260505191507 | 44 | 242 | 0.9 | 5.2 | 0.00 | 0.15 | 0.11 | 67 | 1013.9 |
| 20260505190025 | 42 | 319 | 2.6 | 7.0 | 0.00 | 0.15 | 0.11 | 70 | 1013.8 |